Time;durP1;ratioP1;P1;durP2;ratioP2;P2;SDS_P1;SDS_P2;PMS_P1;PMS_P2;Temp;Humidity;BMP_temperature;BMP_pressure;BME280_temperature;BME280_humidity;BME280_pressure;Samples;Min_cycle;Max_cycle;Signal;HPM_P1;HPM_P2
2021/07/05 00:01:37;;;;;;;6.18;0.60;;;;;;;16.21;95.53;98837.56;1983922;79;23999;-77
2021/07/05 00:04:40;;;;;;;4.56;0.60;;;;;;;16.23;95.42;98846.22;1982075;81;20581;-77
2021/07/05 00:07:47;;;;;;;1.77;0.65;;;;;;;16.23;95.17;98843.59;1982545;81;20176;-76
2021/07/05 00:10:49;;;;;;;5.99;0.70;;;;;;;16.20;95.01;98841.09;1981729;81;20184;-77
2021/07/05 00:13:52;;;;;;;3.45;0.60;;;;;;;16.15;94.96;98837.78;1981569;81;20282;-76
2021/07/05 00:16:54;;;;;;;1.48;0.56;;;;;;;16.13;94.73;98845.69;1984335;78;23167;-77
2021/07/05 00:19:59;;;;;;;1.77;0.57;;;;;;;16.09;94.47;98851.94;1987292;81;20748;-76
2021/07/05 00:23:01;;;;;;;6.41;0.65;;;;;;;16.05;94.23;98852.97;1986512;81;21151;-76
2021/07/05 00:26:04;;;;;;;4.43;0.64;;;;;;;16.03;94.38;98844.31;1987106;81;20199;-76
2021/07/05 00:29:06;;;;;;;3.28;0.59;;;;;;;16.04;94.65;98840.78;1987060;81;20176;-76
2021/07/05 00:32:09;;;;;;;5.44;0.60;;;;;;;16.05;94.46;98842.50;1982497;79;23788;-76
2021/07/05 00:35:13;;;;;;;3.78;0.60;;;;;;;16.05;94.38;98845.13;1984893;81;20200;-77
2021/07/05 00:38:15;;;;;;;4.36;0.69;;;;;;;16.02;94.41;98833.00;1981986;81;20196;-76
2021/07/05 00:41:18;;;;;;;1.89;0.60;;;;;;;15.99;94.42;98835.72;1982387;81;20206;-76
2021/07/05 00:44:20;;;;;;;3.44;0.55;;;;;;;15.98;94.50;98838.41;1982407;82;20169;-77
2021/07/05 00:47:23;;;;;;;3.78;0.50;;;;;;;15.98;94.47;98838.41;1984511;79;21014;-76
2021/07/05 00:50:28;;;;;;;1.94;0.50;;;;;;;15.99;94.55;98837.50;1986141;81;20679;-77
2021/07/05 00:53:32;;;;;;;7.68;0.70;;;;;;;16.00;94.61;98821.72;1986537;81;20243;-77
2021/07/05 00:56:36;;;;;;;2.05;0.50;;;;;;;16.01;94.79;98818.19;1987135;81;20187;-77
2021/07/05 00:59:39;;;;;;;0.88;0.52;;;;;;;16.02;94.66;98814.66;1985760;81;20262;-77
2021/07/05 01:02:43;;;;;;;6.36;0.81;;;;;;;16.06;94.45;98819.78;1982762;79;20253;-77
2021/07/05 01:05:47;;;;;;;3.89;0.60;;;;;;;16.06;94.55;98804.06;1981509;81;20194;-77
2021/07/05 01:08:50;;;;;;;3.44;0.60;;;;;;;16.05;94.76;98812.84;1982331;81;20177;-77
2021/07/05 01:11:52;;;;;;;6.26;0.70;;;;;;;16.05;94.81;98810.22;1981569;82;20204;-77
2021/07/05 01:14:55;;;;;;;3.30;0.70;;;;;;;16.06;94.95;98812.78;1981256;82;20232;-78
2021/07/05 01:18:00;;;;;;;6.85;0.80;;;;;;;16.08;95.10;98816.19;1985654;79;22337;-77
2021/07/05 01:21:03;;;;;;;7.25;0.64;;;;;;;16.10;95.26;98811.75;1987451;81;20225;-77
2021/07/05 01:24:06;;;;;;;4.34;0.57;;;;;;;16.13;95.33;98809.03;1986808;81;20746;-78
2021/07/05 01:27:09;;;;;;;1.45;0.77;;;;;;;16.15;95.33;98801.97;1987173;81;20175;-77
2021/07/05 01:30:16;;;;;;;1.63;0.70;;;;;;;16.18;95.24;98801.03;1986645;81;20219;-78
2021/07/05 01:33:19;;;;;;;6.57;0.70;;;;;;;16.19;95.22;98815.81;1982925;79;22552;-77
2021/07/05 01:36:22;;;;;;;4.38;0.70;;;;;;;16.19;95.34;98821.06;1981672;82;20189;-77
2021/07/05 01:39:25;;;;;;;4.11;0.60;;;;;;;16.19;95.37;98827.16;1982316;82;20176;-77
2021/07/05 01:42:28;;;;;;;2.29;0.55;;;;;;;16.21;95.35;98825.34;1981796;81;20283;-77
2021/07/05 01:45:34;;;;;;;2.60;0.60;;;;;;;16.23;95.27;98805.16;1981846;79;20172;-77
2021/07/05 01:48:36;;;;;;;2.05;0.60;;;;;;;16.26;95.21;98812.06;1986927;81;20305;-77
2021/07/05 01:51:39;;;;;;;1.56;0.50;;;;;;;16.26;95.13;98818.16;1986765;81;20175;-77
2021/07/05 01:54:42;;;;;;;2.58;0.50;;;;;;;16.28;95.04;98818.09;1987867;81;20280;-77
2021/07/05 01:57:45;;;;;;;9.07;0.69;;;;;;;16.26;95.33;98822.53;1986996;81;20160;-77
2021/07/05 02:00:48;;;;;;;4.64;0.76;;;;;;;16.28;95.40;98829.44;1984405;79;26772;-77
2021/07/05 02:03:51;;;;;;;1.13;0.60;;;;;;;16.30;95.40;98830.22;1982618;82;20558;-77
2021/07/05 02:06:54;;;;;;;2.54;0.66;;;;;;;16.31;95.36;98828.44;1982774;82;20239;-77
2021/07/05 02:09:57;;;;;;;2.16;0.70;;;;;;;16.35;95.38;98831.84;1983042;82;20847;-78
2021/07/05 02:13:02;;;;;;;2.81;0.68;;;;;;;16.36;95.35;98828.31;1983047;82;20208;-77
2021/07/05 02:16:06;;;;;;;3.46;0.60;;;;;;;16.40;94.94;98816.78;1984058;79;22941;-77
2021/07/05 02:19:08;;;;;;;3.38;0.60;;;;;;;16.40;94.73;98799.31;1988196;81;20770;-77
2021/07/05 02:22:11;;;;;;;2.31;0.63;;;;;;;16.42;94.46;98794.00;1987530;81;20845;-77
2021/07/05 02:25:14;;;;;;;3.72;0.60;;;;;;;16.36;94.33;98778.53;1988324;81;20708;-77
2021/07/05 02:28:36;;;;;;;4.64;0.60;;;;;;;16.33;94.35;98780.31;1988478;81;20168;-77
2021/07/05 02:31:39;;;;;;;3.60;0.50;;;;;;;16.32;94.07;98778.63;1985370;79;22285;-77
2021/07/05 02:34:42;;;;;;;2.16;0.65;;;;;;;16.29;93.93;98778.72;1984122;81;20192;-77
2021/07/05 02:37:47;;;;;;;1.35;0.60;;;;;;;16.28;93.88;98776.16;1983558;82;20186;-77
2021/07/05 02:40:53;;;;;;;2.89;0.60;;;;;;;16.26;93.87;98788.47;1983766;81;20172;-76
2021/07/05 02:43:55;;;;;;;4.34;0.60;;;;;;;16.23;93.79;98783.34;1983860;81;20196;-76
2021/07/05 02:46:58;;;;;;;8.81;0.56;;;;;;;16.21;93.97;98786.03;1987406;79;20459;-77
2021/07/05 02:50:04;;;;;;;3.86;0.60;;;;;;;16.20;94.02;98786.94;1989072;81;20306;-77
2021/07/05 02:53:08;;;;;;;4.06;0.54;;;;;;;16.19;94.11;98782.63;1989238;81;20171;-78
2021/07/05 02:56:11;;;;;;;2.30;0.69;;;;;;;16.21;94.03;98785.19;1988917;81;20176;-77
2021/07/05 02:59:14;;;;;;;3.46;0.65;;;;;;;16.17;94.02;98797.53;1988838;81;20289;-77
2021/07/05 03:02:16;;;;;;;8.49;0.74;;;;;;;16.16;94.01;98797.59;1987607;78;21080;-78
2021/07/05 03:05:22;;;;;;;6.09;0.56;;;;;;;16.12;93.88;98803.84;1988350;81;20225;-77
2021/07/05 03:08:25;;;;;;;2.36;0.66;;;;;;;16.11;93.79;98810.00;1987794;81;20269;-78
2021/07/05 03:11:27;;;;;;;2.36;0.51;;;;;;;16.09;93.84;98803.97;1987638;81;20340;-78
2021/07/05 03:14:30;;;;;;;4.47;0.66;;;;;;;16.08;93.91;98800.47;1986971;81;20948;-77
2021/07/05 03:17:33;;;;;;;1.08;0.41;;;;;;;16.07;93.65;98804.00;1986908;79;20762;-77
2021/07/05 03:20:38;;;;;;;3.28;0.60;;;;;;;16.08;93.45;98794.38;1987049;81;21133;-77
2021/07/05 03:23:41;;;;;;;4.05;0.60;;;;;;;16.08;93.30;98792.63;1986941;81;20691;-77
2021/07/05 03:26:44;;;;;;;5.32;0.69;;;;;;;16.04;93.19;98803.28;1987706;81;20678;-77
2021/07/05 03:29:46;;;;;;;3.40;0.55;;;;;;;15.99;93.36;98791.22;1987990;81;20219;-78
2021/07/05 03:32:50;;;;;;;1.36;0.60;;;;;;;16.01;93.33;98797.25;1986186;79;20404;-77
2021/07/05 03:35:53;;;;;;;1.99;0.50;;;;;;;16.02;93.27;98800.72;1987666;81;20201;-77
2021/07/05 03:38:56;;;;;;;5.68;0.50;;;;;;;16.01;93.39;98802.47;1987446;81;20705;-77
2021/07/05 03:41:59;;;;;;;2.83;1.23;;;;;;;16.03;93.42;98805.03;1987749;81;21048;-77
2021/07/05 03:45:02;;;;;;;2.16;0.44;;;;;;;16.04;93.45;98801.50;1987249;81;20208;-77
2021/07/05 03:48:07;;;;;;;2.09;0.66;;;;;;;16.05;93.66;98810.22;1982096;79;24570;-77
2021/07/05 03:51:10;;;;;;;4.40;0.51;;;;;;;16.06;93.66;98815.41;1982412;82;20172;-77
2021/07/05 03:54:13;;;;;;;2.89;0.41;;;;;;;16.07;93.71;98809.25;1981850;81;20744;-77
2021/07/05 03:57:25;;;;;;;2.49;0.60;;;;;;;16.07;93.61;98822.34;1982741;81;20294;-76
2021/07/05 04:00:34;;;;;;;2.72;0.94;;;;;;;16.07;93.41;98827.59;1981951;79;21302;-77
2021/07/05 04:03:37;;;;;;;;;;;;;;;16.06;93.62;98827.66;1986994;81;20212;-77
2021/07/05 04:06:39;;;;;;;1.24;0.40;;;;;;;16.06;93.72;98825.88;1987994;81;20158;-77
2021/07/05 04:09:42;;;;;;;2.19;0.49;;;;;;;16.05;93.91;98837.25;1987363;81;20199;-76
2021/07/05 04:12:45;;;;;;;1.89;0.64;;;;;;;16.06;94.11;98828.50;1987226;81;20187;-76
2021/07/05 04:15:49;;;;;;;3.05;0.60;;;;;;;16.06;93.95;98828.50;1986412;79;22135;-76
2021/07/05 04:18:52;;;;;;;2.53;0.50;;;;;;;16.04;93.73;98840.78;1987459;81;20277;-77
2021/07/05 04:21:55;;;;;;;2.28;0.64;;;;;;;16.03;93.52;98839.09;1987005;81;20191;-76
2021/07/05 04:24:57;;;;;;;5.07;0.50;;;;;;;15.99;93.37;98840.97;1987231;81;20218;-76
2021/07/05 04:28:00;;;;;;;5.01;0.56;;;;;;;15.95;93.37;98836.72;1986990;81;20187;-76
2021/07/05 04:31:03;;;;;;;2.19;0.61;;;;;;;15.94;93.30;98842.88;1984285;79;21675;-76
2021/07/05 04:34:06;;;;;;;2.00;0.65;;;;;;;15.96;93.33;98837.56;1982820;82;20349;-77
2021/07/05 04:37:09;;;;;;;7.80;0.86;;;;;;;15.97;93.39;98839.28;1982387;82;20300;-76
2021/07/05 04:40:19;;;;;;;3.09;0.66;;;;;;;15.95;93.29;98841.94;1981481;81;20318;-76
2021/07/05 04:43:22;;;;;;;2.40;0.50;;;;;;;15.94;93.12;98844.63;1982790;82;20251;-76
2021/07/05 04:46:26;;;;;;;3.05;0.59;;;;;;;15.96;93.01;98843.66;1983002;79;25380;-76
2021/07/05 04:49:28;;;;;;;4.64;0.86;;;;;;;16.00;93.02;98847.06;1987618;81;20411;-77
2021/07/05 04:52:31;;;;;;;1.91;0.54;;;;;;;16.00;93.02;98842.66;1986570;81;20211;-76
2021/07/05 04:55:34;;;;;;;4.57;0.51;;;;;;;15.99;93.19;98842.72;1986765;81;20205;-76
2021/07/05 04:58:37;;;;;;;5.28;1.15;;;;;;;15.99;93.30;98847.97;1987194;81;20316;-76
2021/07/05 05:01:40;;;;;;;2.39;0.57;;;;;;;15.97;93.25;98841.91;1985665;79;20601;-77
2021/07/05 05:04:43;;;;;;;1.74;0.50;;;;;;;15.96;93.33;98837.56;1986951;81;20372;-76
2021/07/05 05:07:45;;;;;;;4.43;0.60;;;;;;;15.96;93.18;98835.81;1986717;81;20211;-77
2021/07/05 05:10:48;;;;;;;2.60;0.70;;;;;;;15.97;93.19;98834.91;1985975;81;20168;-78
2021/07/05 05:13:51;;;;;;;2.05;0.61;;;;;;;16.02;92.96;98822.53;1988100;81;20948;-80
2021/07/05 05:16:53;;;;;;;1.85;0.55;;;;;;;16.05;92.81;98818.94;1982666;79;23918;-80
2021/07/05 05:19:56;;;;;;;2.35;0.55;;;;;;;16.10;92.80;98822.22;1982387;82;20235;-78
2021/07/05 05:22:59;;;;;;;4.64;0.68;;;;;;;16.16;92.82;98823.78;1982332;82;20184;-78
2021/07/05 05:26:01;;;;;;;2.97;0.44;;;;;;;16.17;92.55;98815.88;1980375;82;20206;-78
2021/07/05 05:29:04;;;;;;;2.31;0.50;;;;;;;16.20;92.40;98821.00;1980334;82;20205;-77
2021/07/05 05:32:07;;;;;;;2.11;0.57;;;;;;;16.26;92.49;98828.63;1982469;79;23212;-77
2021/07/05 05:35:10;;;;;;;4.41;0.70;;;;;;;16.32;92.86;98823.16;1985504;81;20216;-77
2021/07/05 05:38:13;;;;;;;2.41;0.60;;;;;;;16.33;92.31;98830.09;1985536;81;20183;-77
2021/07/05 05:41:16;;;;;;;3.06;0.81;;;;;;;16.33;92.16;98832.72;1985406;81;20205;-77
2021/07/05 05:44:19;;;;;;;5.75;0.80;;;;;;;16.34;91.79;98828.38;1985586;81;20257;-77
2021/07/05 05:47:21;;;;;;;4.13;0.50;;;;;;;16.32;91.83;98817.91;1980065;79;21758;-77
2021/07/05 05:50:24;;;;;;;5.00;0.60;;;;;;;16.34;91.83;98815.25;1979713;82;20181;-76
2021/07/05 05:53:28;;;;;;;1.54;0.50;;;;;;;16.38;92.21;98822.09;1979748;82;20213;-76
2021/07/05 05:56:32;;;;;;;1.79;0.50;;;;;;;16.44;92.24;98808.75;1979895;82;20253;-76
2021/07/05 05:59:36;;;;;;;5.22;0.60;;;;;;;16.54;92.42;98807.50;1980297;81;20716;-78
2021/07/05 06:02:39;;;;;;;2.39;0.84;;;;;;;16.66;92.40;98814.03;1987705;78;20221;-75
2021/07/05 06:05:42;;;;;;;3.70;0.49;;;;;;;16.76;92.10;98812.81;1988991;81;20232;-78
2021/07/05 06:08:45;;;;;;;6.64;0.73;;;;;;;16.81;91.40;98820.50;1988027;81;20272;-76
2021/07/05 06:11:47;;;;;;;6.31;0.60;;;;;;;16.85;90.76;98820.31;1987941;81;20209;-76
2021/07/05 06:14:50;;;;;;;3.10;0.60;;;;;;;16.82;90.49;98817.81;1987879;81;20285;-76
2021/07/05 06:17:53;;;;;;;4.72;0.88;;;;;;;16.83;90.36;98822.13;1982666;79;33827;-76
2021/07/05 06:20:55;;;;;;;5.94;0.84;;;;;;;16.83;90.14;98810.78;1982679;81;20198;-75
2021/07/05 06:24:02;;;;;;;14.25;1.49;;;;;;;16.81;90.05;98808.22;1982527;81;20216;-75
2021/07/05 06:27:05;;;;;;;10.00;1.74;;;;;;;16.81;89.62;98815.25;1982683;81;20720;-75
2021/07/05 06:30:08;;;;;;;5.85;1.08;;;;;;;16.82;89.43;98815.19;1982445;81;20168;-76
2021/07/05 06:33:12;;;;;;;5.31;1.10;;;;;;;16.87;89.42;98815.84;1986439;78;20213;-76
2021/07/05 06:36:15;;;;;;;4.64;1.05;;;;;;;16.93;89.71;98814.78;1986875;81;20172;-76
2021/07/05 06:39:18;;;;;;;3.90;1.23;;;;;;;16.95;89.21;98812.09;1986833;81;20172;-76
2021/07/05 06:42:21;;;;;;;7.36;1.08;;;;;;;16.99;89.37;98809.28;1987111;81;20309;-76
2021/07/05 06:45:24;;;;;;;2.80;1.24;;;;;;;17.06;89.45;98817.78;1986899;79;20205;-76
2021/07/05 06:48:27;;;;;;;5.72;1.17;;;;;;;17.10;89.19;98814.09;1987285;81;20197;-78
2021/07/05 06:51:29;;;;;;;5.93;1.14;;;;;;;17.14;89.18;98818.31;1988158;81;20578;-77
2021/07/05 06:54:32;;;;;;;5.53;1.21;;;;;;;17.21;89.12;98820.63;1986690;81;20207;-75
2021/07/05 06:57:35;;;;;;;3.31;1.01;;;;;;;17.24;88.57;98817.03;1987526;81;20225;-76
2021/07/05 07:00:38;;;;;;;3.65;1.39;;;;;;;17.29;88.64;98817.69;1986884;79;21255;-76
2021/07/05 07:03:41;;;;;;;8.68;1.30;;;;;;;17.35;88.50;98813.97;1987369;81;20917;-76
2021/07/05 07:06:48;;;;;;;5.55;1.40;;;;;;;17.37;88.19;98815.59;1987650;81;20316;-76
2021/07/05 07:09:51;;;;;;;3.75;1.51;;;;;;;17.42;88.13;98818.06;1987190;81;20603;-75
2021/07/05 07:12:55;;;;;;;4.88;1.20;;;;;;;17.41;87.67;98817.16;1987586;81;20704;-76
2021/07/05 07:16:18;;;;;;;5.74;1.00;;;;;;;17.36;87.22;98816.50;1986428;79;20287;-78
2021/07/05 07:19:20;;;;;;;5.85;1.10;;;;;;;17.36;87.32;98819.13;1981946;81;20305;-75
2021/07/05 07:22:23;;;;;;;4.76;1.14;;;;;;;17.40;87.96;98820.72;1982104;81;20198;-74
2021/07/05 07:25:27;;;;;;;6.07;1.30;;;;;;;17.46;88.31;98815.22;1981290;81;20204;-74
2021/07/05 07:28:30;;;;;;;5.38;1.31;;;;;;;17.50;88.31;98814.19;1981056;82;20222;-73
2021/07/05 07:31:33;;;;;;;10.46;1.51;;;;;;;17.54;88.08;98809.66;1983658;79;29595;-73
2021/07/05 07:34:35;;;;;;;4.61;1.25;;;;;;;17.53;88.08;98807.94;1987271;81;20741;-73
2021/07/05 07:37:40;;;;;;;4.86;1.20;;;;;;;17.48;87.81;98807.28;1987189;81;20243;-73
2021/07/05 07:40:43;;;;;;;6.39;1.13;;;;;;;17.51;88.16;98809.78;1986987;81;20294;-74
2021/07/05 07:43:46;;;;;;;5.35;1.11;;;;;;;17.49;88.39;98801.13;1987100;81;20195;-74
2021/07/05 07:46:48;;;;;;;2.86;1.13;;;;;;;17.45;88.11;98804.81;1982531;79;20562;-74
2021/07/05 07:49:51;;;;;;;3.91;1.69;;;;;;;17.44;88.57;98792.59;1982224;81;20180;-73
2021/07/05 07:52:56;;;;;;;7.63;1.31;;;;;;;17.45;88.57;98797.78;1982696;81;20192;-73
2021/07/05 07:55:59;;;;;;;3.51;1.05;;;;;;;17.39;88.50;98794.53;1981855;81;20657;-73
2021/07/05 07:59:02;;;;;;;2.72;0.90;;;;;;;17.37;88.69;98785.88;1981628;81;20225;-75
2021/07/05 08:02:05;;;;;;;4.80;0.90;;;;;;;17.30;88.63;98789.69;1981035;79;21390;-73
2021/07/05 08:05:09;;;;;;;5.43;0.88;;;;;;;17.25;88.82;98789.03;1981993;81;20184;-73
2021/07/05 08:08:13;;;;;;;4.26;0.86;;;;;;;17.22;88.87;98780.34;1982427;81;20172;-74
2021/07/05 08:11:16;;;;;;;3.14;1.00;;;;;;;17.19;89.18;98784.88;1981836;81;20584;-74
2021/07/05 08:14:19;;;;;;;3.22;1.14;;;;;;;17.18;89.00;98778.75;1982112;81;20310;-74
2021/07/05 08:17:22;;;;;;;3.16;0.79;;;;;;;17.13;88.42;98778.09;1984487;78;68391;-75
2021/07/05 08:20:25;;;;;;;4.89;0.69;;;;;;;17.12;88.23;98786.03;1986693;81;20187;-74
2021/07/05 08:23:27;;;;;;;2.54;0.50;;;;;;;17.06;87.70;98787.16;1986700;81;20200;-74
2021/07/05 08:26:30;;;;;;;4.20;0.88;;;;;;;17.03;86.96;98782.00;1987156;81;20353;-74
2021/07/05 08:29:34;;;;;;;2.01;0.70;;;;;;;16.98;87.55;98783.97;1986391;81;20184;-75
2021/07/05 08:32:37;;;;;;;2.30;0.60;;;;;;;16.96;87.62;98783.19;1982104;79;27487;-75
2021/07/05 08:35:39;;;;;;;2.16;0.50;;;;;;;17.01;88.14;98777.75;1982224;81;20274;-75
2021/07/05 08:38:42;;;;;;;1.55;0.40;;;;;;;17.01;87.40;98785.59;1981316;81;20210;-74
2021/07/05 08:41:44;;;;;;;2.86;0.63;;;;;;;17.03;87.65;98768.03;1981452;81;20637;-74
2021/07/05 08:44:47;;;;;;;1.71;0.51;;;;;;;17.07;87.61;98769.66;1982490;81;20192;-74
2021/07/05 08:47:53;;;;;;;2.15;0.60;;;;;;;17.06;87.85;98757.44;1985917;78;23661;-74
2021/07/05 08:50:59;;;;;;;3.31;0.50;;;;;;;17.10;87.95;98757.25;1987042;81;20176;-75
2021/07/05 08:54:01;;;;;;;1.63;0.56;;;;;;;17.14;87.91;98760.59;1986113;81;20856;-75
2021/07/05 08:57:04;;;;;;;2.28;0.50;;;;;;;17.15;88.35;98759.69;1986256;81;20211;-74
2021/07/05 09:00:28;;;;;;;2.58;0.60;;;;;;;17.17;88.27;98757.84;1986647;81;20258;-74
2021/07/05 09:03:31;;;;;;;1.95;0.54;;;;;;;17.08;88.32;98756.47;1983530;81;20213;-74
2021/07/05 09:06:35;;;;;;;1.06;0.40;;;;;;;17.06;88.26;98758.31;1982016;81;21171;-74
2021/07/05 09:09:38;;;;;;;0.85;0.41;;;;;;;17.07;88.06;98761.78;1982141;81;20253;-75
2021/07/05 09:12:41;;;;;;;1.84;0.43;;;;;;;17.06;87.74;98758.31;1981689;81;20189;-74
2021/07/05 09:15:50;;;;;;;1.40;0.50;;;;;;;17.07;87.46;98757.38;1982472;79;20315;-75
2021/07/05 09:18:54;;;;;;;2.91;0.58;;;;;;;17.07;87.31;98748.66;1986769;81;20199;-75
2021/07/05 09:22:04;;;;;;;8.84;2.22;;;;;;;17.10;87.43;98756.41;1986422;81;20362;-75
2021/07/05 09:25:07;;;;;;;2.55;0.57;;;;;;;17.11;87.73;98753.72;1986787;81;20760;-75
2021/07/05 09:28:09;;;;;;;3.15;0.50;;;;;;;17.20;88.27;98747.22;1986594;81;20666;-75
2021/07/05 09:31:12;;;;;;;1.23;0.45;;;;;;;17.32;88.75;98749.34;1983788;79;23243;-76
2021/07/05 09:34:16;;;;;;;0.77;0.41;;;;;;;17.36;88.25;98742.19;1982203;81;20224;-76
2021/07/05 09:37:22;;;;;;;0.66;0.38;;;;;;;17.42;87.44;98739.31;1982465;81;20172;-76
2021/07/05 09:40:28;;;;;;;1.29;0.40;;;;;;;17.45;86.89;98739.19;1982519;81;20216;-75
2021/07/05 09:43:31;;;;;;;0.56;0.40;;;;;;;17.56;87.05;98736.06;1982683;81;20668;-76
2021/07/05 09:46:35;;;;;;;1.14;0.41;;;;;;;17.58;86.94;98736.84;1984673;79;21613;-75
2021/07/05 09:49:37;;;;;;;0.54;0.40;;;;;;;17.62;86.88;98744.56;1987444;81;20188;-76
2021/07/05 09:52:40;;;;;;;2.61;0.40;;;;;;;17.73;86.62;98736.22;1986775;81;20206;-75
2021/07/05 09:55:43;;;;;;;2.55;0.82;;;;;;;17.85;86.66;98740.09;1987609;81;20192;-76
2021/07/05 09:58:48;;;;;;;0.95;0.40;;;;;;;18.00;86.47;98740.28;1987965;81;20164;-75
2021/07/05 10:01:56;;;;;;;0.82;0.56;;;;;;;18.07;85.82;98732.94;1984392;79;20210;-76
2021/07/05 10:05:10;;;;;;;0.50;0.40;;;;;;;18.15;85.23;98727.38;1982201;81;20214;-75
2021/07/05 10:08:15;;;;;;;0.60;0.30;;;;;;;18.18;85.33;98717.56;1982713;81;20302;-76
2021/07/05 10:11:22;;;;;;;1.19;0.95;;;;;;;18.18;84.60;98716.72;1982515;81;20184;-75
2021/07/05 10:14:24;;;;;;;0.59;0.28;;;;;;;18.29;85.85;98715.28;1983482;81;20201;-76
2021/07/05 10:17:28;;;;;;;0.47;0.30;;;;;;;18.45;85.42;98714.56;1985418;79;21692;-76
2021/07/05 10:20:39;;;;;;;0.76;0.36;;;;;;;18.50;84.93;98718.69;1985662;81;20226;-76
2021/07/05 10:23:42;;;;;;;2.86;0.35;;;;;;;18.51;84.15;98716.91;1986364;81;20775;-77
2021/07/05 10:26:46;;;;;;;0.71;0.26;;;;;;;18.55;84.55;98711.44;1986245;81;20187;-75
2021/07/05 10:29:48;;;;;;;0.50;0.20;;;;;;;18.57;85.15;98712.22;1986184;81;20207;-73
2021/07/05 10:32:52;;;;;;;4.44;0.50;;;;;;;18.61;84.75;98718.16;1980510;79;20283;-74
2021/07/05 10:35:57;;;;;;;1.73;0.30;;;;;;;18.72;85.75;98708.03;1981264;81;20192;-74
2021/07/05 10:39:01;;;;;;;1.01;0.10;;;;;;;18.95;85.81;98699.84;1981355;81;20176;-75
2021/07/05 10:42:28;;;;;;;0.57;0.20;;;;;;;19.02;85.24;98710.91;1981037;81;20825;-78
2021/07/05 10:45:49;;;;;;;0.17;0.10;;;;;;;19.03;84.35;98712.66;1982032;78;23447;-75
2021/07/05 10:48:51;;;;;;;0.36;0.30;;;;;;;18.99;84.57;98716.34;1986488;81;20160;-75
2021/07/05 10:51:56;;;;;;;0.15;0.10;;;;;;;18.90;84.33;98699.25;1986411;81;20306;-72
2021/07/05 10:54:59;;;;;;;0.10;0.10;;;;;;;18.88;84.77;98709.00;1986526;81;20658;-74
2021/07/05 10:58:03;;;;;;;0.10;0.10;;;;;;;19.10;85.94;98700.88;1986393;81;20689;-74
2021/07/05 11:01:07;;;;;;;0.95;0.25;;;;;;;19.32;85.25;98698.00;1983322;79;23855;-74
2021/07/05 11:04:29;;;;;;;6.44;0.30;;;;;;;19.47;83.72;98706.91;1981059;81;20671;-75
2021/07/05 11:07:43;;;;;;;0.20;0.10;;;;;;;19.74;83.88;98689.69;1981589;81;20669;-75
2021/07/05 11:10:47;;;;;;;0.00;0.00;;;;;;;20.25;84.10;98692.22;1981028;82;20344;-75
2021/07/05 11:14:13;;;;;;;0.20;0.19;;;;;;;20.63;81.75;98687.50;1981837;81;20189;-75
2021/07/05 11:17:16;;;;;;;0.30;0.10;;;;;;;20.95;80.75;98686.50;1986090;78;22034;-75
2021/07/05 11:20:19;;;;;;;0.24;0.10;;;;;;;21.18;78.88;98686.94;1987199;81;20208;-74
2021/07/05 11:23:22;;;;;;;1.42;0.20;;;;;;;21.40;77.70;98684.78;1986634;81;20687;-75
2021/07/05 11:26:36;;;;;;;0.65;0.11;;;;;;;21.44;75.21;98682.81;1987368;81;20832;-76
2021/07/05 11:29:45;;;;;;;0.34;0.10;;;;;;;21.80;76.57;98685.00;1985373;81;21251;-75
2021/07/05 11:32:51;;;;;;;0.44;0.10;;;;;;;21.87;72.80;98681.88;1984759;78;20598;-75
2021/07/05 11:35:58;;;;;;;1.66;0.20;;;;;;;21.76;74.50;98673.78;1985789;81;20250;-74
2021/07/05 11:39:03;;;;;;;1.04;0.60;;;;;;;22.06;74.63;98673.69;1986185;81;20205;-75
2021/07/05 11:42:06;;;;;;;0.74;0.20;;;;;;;22.33;72.58;98670.25;1985497;81;20191;-75
2021/07/05 11:45:10;;;;;;;0.40;0.20;;;;;;;22.70;73.23;98658.97;1985032;81;20224;-75
2021/07/05 11:48:40;;;;;;;0.35;0.30;;;;;;;23.00;70.83;98663.25;1980376;79;20180;-75
2021/07/05 11:51:49;;;;;;;1.41;0.70;;;;;;;23.40;70.92;98662.25;1980378;81;20218;-75
2021/07/05 11:55:00;;;;;;;2.61;0.30;;;;;;;23.36;68.24;98654.59;1980549;81;20649;-75
2021/07/05 11:58:05;;;;;;;4.10;0.20;;;;;;;22.83;66.57;98662.56;1980545;81;20188;-76
2021/07/05 12:01:12;;;;;;;1.48;0.30;;;;;;;22.38;68.70;98666.34;1981724;78;23212;-76
2021/07/05 12:04:15;;;;;;;1.73;0.20;;;;;;;22.21;69.66;98659.50;1985778;81;20217;-75
2021/07/05 12:07:21;;;;;;;1.27;0.41;;;;;;;22.06;71.15;98665.75;1985125;81;20172;-75
2021/07/05 12:10:28;;;;;;;4.81;0.31;;;;;;;21.82;70.38;98659.31;1985639;81;20187;-75
2021/07/05 12:13:30;;;;;;;3.21;0.30;;;;;;;22.15;71.96;98662.53;1985718;81;20184;-76
2021/07/05 12:16:34;;;;;;;1.34;0.24;;;;;;;22.74;70.88;98654.31;1985003;78;22457;-76
2021/07/05 12:19:41;;;;;;;1.73;0.26;;;;;;;22.96;67.95;98657.28;1985545;81;20179;-76
2021/07/05 12:22:44;;;;;;;1.26;0.60;;;;;;;22.95;68.30;98652.94;1985663;81;20205;-75
2021/07/05 12:25:47;;;;;;;1.95;0.21;;;;;;;23.49;69.44;98663.38;1986206;81;20651;-75
2021/07/05 12:29:14;;;;;;;1.05;0.30;;;;;;;23.97;67.02;98656.50;1986418;81;20219;-76
2021/07/05 12:32:33;;;;;;;2.10;0.30;;;;;;;24.21;65.02;98655.72;1982108;79;22153;-77
2021/07/05 12:35:37;;;;;;;2.17;0.24;;;;;;;24.24;65.00;98651.06;1982057;81;20249;-76
2021/07/05 12:38:57;;;;;;;0.82;0.30;;;;;;;24.05;63.97;98642.69;1982046;82;20639;-76
2021/07/05 12:42:21;;;;;;;0.55;0.30;;;;;;;23.81;63.94;98648.78;1981506;81;20204;-76
2021/07/05 12:45:33;;;;;;;0.94;0.30;;;;;;;23.40;63.36;98640.19;1980255;78;20225;-75
2021/07/05 12:48:36;;;;;;;1.69;0.29;;;;;;;22.91;65.71;98646.16;1984387;81;20966;-76
2021/07/05 12:51:41;;;;;;;0.70;0.30;;;;;;;22.73;66.45;98642.03;1983818;81;20926;-76
2021/07/05 12:54:44;;;;;;;1.08;0.20;;;;;;;22.64;67.09;98640.88;1985956;81;21427;-76
2021/07/05 12:57:52;;;;;;;0.45;0.20;;;;;;;22.64;68.05;98646.16;1985594;81;20172;-75
2021/07/05 13:00:55;;;;;;;0.98;0.30;;;;;;;22.68;67.65;98646.81;1986049;80;22772;-75
2021/07/05 13:04:02;;;;;;;1.09;0.20;;;;;;;22.76;66.92;98650.63;1982607;82;20378;-75
2021/07/05 13:07:08;;;;;;;1.24;0.30;;;;;;;22.76;67.62;98641.84;1981863;81;20244;-76
2021/07/05 13:10:12;;;;;;;4.74;0.30;;;;;;;22.75;66.63;98640.16;1981257;82;21126;-75
2021/07/05 13:13:15;;;;;;;0.59;0.26;;;;;;;22.75;66.52;98641.00;1982598;82;20214;-75
2021/07/05 13:16:26;;;;;;;0.80;0.30;;;;;;;22.63;66.81;98638.31;1982791;79;22960;-75
2021/07/05 13:19:29;;;;;;;1.08;0.40;;;;;;;22.71;66.74;98636.00;1986275;81;20191;-75
2021/07/05 13:22:31;;;;;;;0.80;0.30;;;;;;;22.77;65.36;98632.94;1986487;81;20211;-76
2021/07/05 13:25:34;;;;;;;0.74;0.28;;;;;;;22.83;65.44;98640.53;1987494;81;20724;-75
2021/07/05 13:28:49;;;;;;;0.86;0.40;;;;;;;22.79;65.24;98629.25;1987126;81;20632;-75
2021/07/05 13:31:54;;;;;;;1.74;0.59;;;;;;;22.93;65.64;98617.78;1982456;79;23794;-75
2021/07/05 13:35:10;;;;;;;0.80;0.39;;;;;;;23.10;65.52;98628.06;1981786;82;20201;-75
2021/07/05 13:38:27;;;;;;;2.11;0.30;;;;;;;23.32;65.54;98635.41;1981450;82;20625;-75
2021/07/05 13:41:30;;;;;;;2.41;0.30;;;;;;;23.21;63.39;98630.00;1980974;82;20176;-75
2021/07/05 13:44:34;;;;;;;0.89;0.30;;;;;;;23.31;64.92;98624.91;1980021;82;20259;-75
2021/07/05 13:47:47;;;;;;;0.77;0.30;;;;;;;23.43;64.47;98624.06;1984359;78;20204;-75
2021/07/05 13:50:52;;;;;;;1.25;0.34;;;;;;;23.48;63.38;98621.94;1988493;81;20265;-75
2021/07/05 13:53:55;;;;;;;3.64;0.44;;;;;;;23.48;64.11;98630.75;1986087;81;20359;-75
2021/07/05 13:57:18;;;;;;;1.08;0.30;;;;;;;23.66;63.92;98630.44;1990478;81;20191;-75
2021/07/05 14:00:22;;;;;;;4.04;0.40;;;;;;;23.91;63.43;98630.44;1985030;79;22540;-75
2021/07/05 14:03:25;;;;;;;0.90;0.35;;;;;;;24.02;63.60;98627.00;1981703;81;20716;-76
2021/07/05 14:06:28;;;;;;;5.07;0.40;;;;;;;24.05;61.37;98616.16;1982079;82;20188;-76
2021/07/05 14:09:31;;;;;;;1.02;0.30;;;;;;;24.27;62.81;98611.03;1982025;82;20177;-75
2021/07/05 14:12:33;;;;;;;4.76;0.40;;;;;;;24.54;60.27;98621.44;1982220;82;20293;-75
2021/07/05 14:15:38;;;;;;;5.66;0.40;;;;;;;24.79;57.08;98615.16;1982522;79;28426;-76
2021/07/05 14:18:42;;;;;;;1.83;0.41;;;;;;;24.86;57.30;98626.16;1982739;82;20680;-78
2021/07/05 14:21:45;;;;;;;1.13;0.30;;;;;;;24.79;57.27;98615.16;1981507;81;20177;-76
2021/07/05 14:24:47;;;;;;;0.95;0.14;;;;;;;24.75;57.47;98604.88;1981822;81;21173;-75
2021/07/05 14:27:50;;;;;;;1.01;0.26;;;;;;;24.37;56.59;98608.56;1983029;81;20226;-75
2021/07/05 14:30:55;;;;;;;2.26;0.32;;;;;;;23.93;57.75;98622.38;1983430;81;25682;-75